Shiremoor, United Kingdom
Current Conditions -  °F | °C
As of 2:20 AM on Wednesday 22 Oct 2014 (Local Time) from EGNT Reporting Station
Few Clouds Few Clouds  
Wind Chill: 38°   Ceiling: Unl
Heat Index: 45°   Visibility: 6mi
Dew Point: 39°   Wind: 15mph
Humidity: 81%   Direction: 270°W
Pressure: 30"   Gusts: NA
Location:  55.04°N, 1.51°W
Report Text: EGNT 220120Z 27013KT 9999 FEW040 07/04 Q1016
Loading
Personal Weather Stations






























Interactive Weather Map
Tropical Storm Tracking
New forecast layout! Learn more

10-Day Weather Forecast

Advertisements
Track Severe Weather on mobile